createdAt,value
2024-02-17T00:00:07.241Z,96215.28
2024-02-17T00:01:10.683Z,96214.53
2024-02-17T00:02:12.713Z,96214.53
2024-02-17T00:03:18.762Z,96211.00
2024-02-17T00:04:21.781Z,96212.53
2024-02-17T00:05:23.767Z,96219.28
2024-02-17T00:06:26.731Z,96222.03
2024-02-17T00:07:28.761Z,96219.28
2024-02-17T00:08:31.888Z,96217.72
2024-02-17T00:09:33.745Z,96219.28
2024-02-17T00:10:36.742Z,96225.53
2024-02-17T00:11:39.058Z,96216.53
2024-02-17T00:12:41.929Z,96219.28
2024-02-17T00:13:45.825Z,96223.22
2024-02-17T00:14:47.776Z,96219.28
2024-02-17T00:15:50.735Z,96222.03
2024-02-17T00:16:52.951Z,96218.94
2024-02-17T00:17:55.881Z,96224.44
2024-02-17T00:18:59.213Z,96223.97
2024-02-17T00:20:02.585Z,96227.19
2024-02-17T00:21:05.368Z,96225.97
2024-02-17T00:22:08.640Z,96223.22
2024-02-17T00:23:10.496Z,96216.19
2024-02-17T00:24:13.551Z,96218.13
2024-02-17T00:25:15.887Z,96226.41
2024-02-17T00:26:19.528Z,96226.41
2024-02-17T00:27:21.495Z,96227.19
2024-02-17T00:28:27.605Z,96226.41
2024-02-17T00:29:30.532Z,96233.88
2024-02-17T00:30:32.481Z,96228.38
2024-02-17T00:31:35.806Z,96235.44
2024-02-17T00:32:37.743Z,96225.63
2024-02-17T00:33:40.840Z,96233.13
2024-02-17T00:34:44.212Z,96235.09
2024-02-17T00:35:46.087Z,96231.13
2024-02-17T00:36:48.971Z,96233.53
2024-02-17T00:37:50.800Z,96230.03
2024-02-17T00:38:53.750Z,96232.78
2024-02-17T00:39:56.360Z,96237.50
2024-02-17T00:40:59.420Z,96237.50
2024-02-17T00:42:01.390Z,96241.47
2024-02-17T00:43:04.597Z,96228.91
2024-02-17T00:44:06.633Z,96237.16
2024-02-17T00:45:10.427Z,96234.41
2024-02-17T00:46:12.521Z,96238.19
2024-02-17T00:47:15.403Z,96238.19
2024-02-17T00:48:17.848Z,96242.13
2024-02-17T00:49:21.063Z,96241.28
2024-02-17T00:50:24.850Z,96238.19
2024-02-17T00:51:26.879Z,96246.44
2024-02-17T00:52:29.758Z,96240.50
2024-02-17T00:53:31.663Z,96245.22
2024-02-17T00:54:34.655Z,96238.19
2024-02-17T00:55:36.613Z,96245.22
2024-02-17T00:56:39.450Z,96240.59
2024-02-17T00:57:41.292Z,96238.19
2024-02-17T00:58:43.292Z,96242.47
2024-02-17T00:59:46.182Z,96245.22
2024-02-17T01:00:48.447Z,96241.28
2024-02-17T01:01:51.404Z,96248.00
2024-02-17T01:02:53.268Z,96250.31
2024-02-17T01:03:56.464Z,96246.78
2024-02-17T01:04:58.756Z,96251.06
2024-02-17T01:06:04.368Z,96249.53
2024-02-17T01:07:06.533Z,96253.84
2024-02-17T01:08:10.493Z,96253.06
2024-02-17T01:09:12.465Z,96248.00
2024-02-17T01:10:15.823Z,96255.06
2024-02-17T01:11:19.643Z,96253.50
2024-02-17T01:12:22.842Z,96250.75
2024-02-17T01:13:24.768Z,96256.25
2024-02-17T01:14:27.809Z,96256.25
2024-02-17T01:15:29.771Z,96250.06
2024-02-17T01:16:32.809Z,96256.25
2024-02-17T01:17:34.771Z,96260.97
2024-02-17T01:18:37.883Z,96257.00
2024-02-17T01:19:40.022Z,96261.75
2024-02-17T01:20:42.964Z,96257.00
2024-02-17T01:21:46.352Z,96263.72
2024-02-17T01:22:49.451Z,96264.50
2024-02-17T01:23:51.540Z,96259.00
2024-02-17T01:24:54.459Z,96259.53
2024-02-17T01:25:56.674Z,96260.97
2024-02-17T01:26:59.738Z,96260.22
2024-02-17T01:28:01.683Z,96264.50
2024-02-17T01:29:04.787Z,96260.97
2024-02-17T01:30:07.890Z,96261.41
2024-02-17T01:31:10.727Z,96268.00
2024-02-17T01:32:12.577Z,96264.50
2024-02-17T01:33:14.664Z,96259.75
2024-02-17T01:34:17.670Z,96264.50
2024-02-17T01:35:19.806Z,96268.00
2024-02-17T01:36:22.869Z,96268.00
2024-02-17T01:37:26.166Z,96272.75
2024-02-17T01:38:29.029Z,96270.00
2024-02-17T01:39:30.967Z,96270.19
2024-02-17T01:40:33.837Z,96273.97
2024-02-17T01:41:35.772Z,96260.97
2024-02-17T01:42:38.745Z,96267.78
2024-02-17T01:43:40.645Z,96264.25
2024-02-17T01:44:43.505Z,96264.94
2024-02-17T01:45:47.640Z,96265.72
2024-02-17T01:46:53.267Z,96272.75
2024-02-17T01:47:55.886Z,96272.75
2024-02-17T01:48:58.888Z,96270.00
2024-02-17T01:50:01.010Z,96272.75
2024-02-17T01:51:06.497Z,96275.50
2024-02-17T01:52:09.695Z,96275.50
2024-02-17T01:53:14.123Z,96272.75
2024-02-17T01:54:17.901Z,96267.25
2024-02-17T01:55:21.075Z,96274.31
2024-02-17T01:56:23.539Z,96272.75
2024-02-17T01:57:26.445Z,96272.75
2024-02-17T01:58:28.974Z,96278.25
2024-02-17T01:59:32.149Z,96270.78
2024-02-17T02:00:34.544Z,96274.31
2024-02-17T02:01:39.196Z,96274.31
2024-02-17T02:02:44.564Z,96274.31
2024-02-17T02:03:47.641Z,96273.53
2024-02-17T02:04:50.530Z,96272.75
2024-02-17T02:05:53.576Z,96279.81
2024-02-17T02:06:55.652Z,96274.31
2024-02-17T02:07:58.825Z,96279.81
2024-02-17T02:09:02.289Z,96275.28
2024-02-17T02:10:05.425Z,96276.13
2024-02-17T02:11:08.618Z,96283.59
2024-02-17T02:12:10.905Z,96286.38
2024-02-17T02:13:13.970Z,96285.16
2024-02-17T02:14:17.152Z,96277.34
2024-02-17T02:15:22.561Z,96283.59
2024-02-17T02:16:24.703Z,96280.09
2024-02-17T02:17:27.795Z,96280.84
2024-02-17T02:18:29.937Z,96286.38
2024-02-17T02:19:33.128Z,96281.03
2024-02-17T02:20:35.248Z,96282.56
2024-02-17T02:21:39.521Z,96281.28
2024-02-17T02:22:43.108Z,96275.00
2024-02-17T02:23:47.772Z,96282.06
2024-02-17T02:24:55.457Z,96285.59
2024-02-17T02:25:59.910Z,96286.03
2024-02-17T02:27:01.854Z,96286.38
2024-02-17T02:28:05.281Z,96290.34
2024-02-17T02:29:07.207Z,96290.34
2024-02-17T02:30:10.457Z,96284.81
2024-02-17T02:31:13.486Z,96280.84
2024-02-17T02:32:15.387Z,96295.03
2024-02-17T02:33:18.750Z,96288.00
2024-02-17T02:34:20.969Z,96292.28
2024-02-17T02:35:23.963Z,96289.53
2024-02-17T02:36:26.262Z,96293.09
2024-02-17T02:37:28.587Z,96283.28
2024-02-17T02:38:31.471Z,96290.00
2024-02-17T02:39:33.472Z,96297.78
2024-02-17T02:40:36.462Z,96294.28
2024-02-17T02:41:39.739Z,96287.44
2024-02-17T02:42:42.792Z,96287.25
2024-02-17T02:43:45.542Z,96292.94
2024-02-17T02:44:48.435Z,96291.38
2024-02-17T02:45:50.480Z,96289.66
2024-02-17T02:46:53.525Z,96297.47
2024-02-17T02:47:55.644Z,96295.50
2024-02-17T02:48:58.790Z,96295.34
2024-02-17T02:50:01.197Z,96293.00
2024-02-17T02:51:05.022Z,96292.25
2024-02-17T02:52:07.050Z,96297.75
2024-02-17T02:53:10.572Z,96290.69
2024-02-17T02:54:12.682Z,96290.84
2024-02-17T02:55:15.739Z,96297.91
2024-02-17T02:56:17.772Z,96292.41
2024-02-17T02:57:22.633Z,96295.16
2024-02-17T02:58:24.642Z,96301.41
2024-02-17T02:59:27.588Z,96298.25
2024-02-17T03:00:29.512Z,96298.25
2024-02-17T03:01:32.582Z,96303.75
2024-02-17T03:02:34.638Z,96301.00
2024-02-17T03:03:37.675Z,96304.50
2024-02-17T03:04:39.701Z,96305.28
2024-02-17T03:05:42.736Z,96304.50
2024-02-17T03:06:44.839Z,96302.53
2024-02-17T03:07:46.754Z,96300.53
2024-02-17T03:08:49.756Z,96308.03
2024-02-17T03:09:51.909Z,96306.03
2024-02-17T03:10:54.074Z,96306.84
2024-02-17T03:11:57.014Z,96311.56
2024-02-17T03:13:00.704Z,96299.78
2024-02-17T03:14:03.646Z,96311.56
2024-02-17T03:15:06.715Z,96310.78
2024-02-17T03:16:09.666Z,96306.22
2024-02-17T03:17:11.783Z,96308.31
2024-02-17T03:18:14.925Z,96310.09
2024-02-17T03:19:17.091Z,96310.03
2024-02-17T03:20:20.274Z,96306.50
2024-02-17T03:21:24.487Z,96314.00
2024-02-17T03:22:27.753Z,96321.78
2024-02-17T03:23:29.748Z,96315.53
2024-02-17T03:24:32.812Z,96318.28
2024-02-17T03:25:34.743Z,96317.50
2024-02-17T03:26:37.910Z,96324.53
2024-02-17T03:27:40.285Z,96314.75
2024-02-17T03:28:44.549Z,96327.75
2024-02-17T03:29:46.419Z,96329.69
2024-02-17T03:30:49.817Z,96330.50
2024-02-17T03:31:51.787Z,96329.69
2024-02-17T03:32:55.977Z,96326.94
2024-02-17T03:34:00.340Z,96332.44
2024-02-17T03:35:05.292Z,96336.41
2024-02-17T03:36:07.667Z,96325.41
2024-02-17T03:37:09.721Z,96337.97
2024-02-17T03:38:12.622Z,96339.94
2024-02-17T03:39:16.575Z,96335.19
2024-02-17T03:40:22.115Z,96339.94
2024-02-17T03:41:24.763Z,96346.22
2024-02-17T03:42:27.775Z,96343.91
2024-02-17T03:43:30.286Z,96336.41
2024-02-17T03:44:34.884Z,96350.19
2024-02-17T03:45:36.881Z,96350.19
2024-02-17T03:46:38.832Z,96352.16
2024-02-17T03:47:41.816Z,96349.41
2024-02-17T03:48:43.891Z,96348.63
2024-02-17T03:49:47.041Z,96351.38
2024-02-17T03:50:51.460Z,96350.25
2024-02-17T03:51:53.406Z,96347.09
2024-02-17T03:52:56.423Z,96358.84
2024-02-17T03:53:58.306Z,96345.09
2024-02-17T03:55:01.124Z,96352.59
2024-02-17T03:56:03.276Z,96364.81
2024-02-17T03:57:06.428Z,96353.00
2024-02-17T03:58:08.353Z,96350.25
2024-02-17T03:59:10.238Z,96362.06
2024-02-17T04:00:15.423Z,96355.88
2024-02-17T04:01:17.540Z,96364.47
2024-02-17T04:02:20.425Z,96362.91
2024-02-17T04:03:22.301Z,96357.41
2024-02-17T04:04:25.218Z,96367.22
2024-02-17T04:05:27.246Z,96360.16
2024-02-17T04:06:30.222Z,96371.91
2024-02-17T04:07:32.254Z,96368.41
2024-02-17T04:08:35.149Z,96375.47
2024-02-17T04:09:37.325Z,96373.91
2024-02-17T04:10:40.786Z,96374.66
2024-02-17T04:11:42.992Z,96372.72
2024-02-17T04:12:46.040Z,96369.16
2024-02-17T04:13:47.987Z,96374.66
2024-02-17T04:14:51.015Z,96377.88
2024-02-17T04:15:54.714Z,96374.34
2024-02-17T04:16:57.649Z,96372.38
2024-02-17T04:18:01.657Z,96377.88
2024-02-17T04:19:03.800Z,96384.13
2024-02-17T04:20:08.429Z,96378.63
2024-02-17T04:21:10.615Z,96377.88
2024-02-17T04:22:13.548Z,96383.38
2024-02-17T04:23:15.529Z,96386.13
2024-02-17T04:24:18.403Z,96388.88
2024-02-17T04:25:20.392Z,96387.66
2024-02-17T04:26:23.294Z,96390.41
2024-02-17T04:27:25.432Z,96386.28
2024-02-17T04:28:28.416Z,96396.94
2024-02-17T04:29:30.335Z,96389.13
2024-02-17T04:30:33.349Z,96394.03
2024-02-17T04:31:36.789Z,96391.28
2024-02-17T04:32:39.692Z,96391.63
2024-02-17T04:33:41.848Z,96399.88
2024-02-17T04:34:44.963Z,96399.13
2024-02-17T04:35:47.077Z,96398.31
2024-02-17T04:36:50.345Z,96404.63
2024-02-17T04:37:52.597Z,96405.38
2024-02-17T04:38:55.507Z,96399.88
2024-02-17T04:39:57.713Z,96411.66
2024-02-17T04:41:00.571Z,96403.41
2024-02-17T04:42:03.660Z,96406.91
2024-02-17T04:43:05.661Z,96408.91
2024-02-17T04:44:08.618Z,96417.94
2024-02-17T04:45:11.541Z,96415.63
2024-02-17T04:46:14.748Z,96420.31
2024-02-17T04:47:17.969Z,96416.38
2024-02-17T04:48:21.077Z,96407.78
2024-02-17T04:49:23.077Z,96418.78
2024-02-17T04:50:25.970Z,96423.06
2024-02-17T04:51:27.998Z,96424.28
2024-02-17T04:52:30.847Z,96424.47
2024-02-17T04:53:32.739Z,96423.59
2024-02-17T04:54:35.708Z,96427.13
2024-02-17T04:55:37.724Z,96433.06
2024-02-17T04:56:39.659Z,96434.59
2024-02-17T04:57:42.897Z,96429.88
2024-02-17T04:58:47.673Z,96429.88
2024-02-17T04:59:50.516Z,96441.66
2024-02-17T05:00:52.416Z,96437.69
2024-02-17T05:01:55.459Z,96440.09
2024-02-17T05:02:58.779Z,96435.38
2024-02-17T05:04:01.706Z,96436.16
2024-02-17T05:05:04.652Z,96436.94
2024-02-17T05:06:07.806Z,96439.69
2024-02-17T05:07:12.887Z,96434.94
2024-02-17T05:08:15.741Z,96443.19
2024-02-17T05:09:17.712Z,96441.22
2024-02-17T05:10:20.968Z,96445.19
2024-02-17T05:11:23.713Z,96436.50
2024-02-17T05:12:26.900Z,96445.59
2024-02-17T05:13:28.969Z,96441.66
2024-02-17T05:14:31.810Z,96442.44
2024-02-17T05:15:33.844Z,96443.19
2024-02-17T05:16:36.743Z,96456.97
2024-02-17T05:17:38.622Z,96445.19
2024-02-17T05:18:42.976Z,96453.44
2024-02-17T05:19:45.124Z,96447.16
2024-02-17T05:20:48.673Z,96455.44
2024-02-17T05:21:51.141Z,96455.75
2024-02-17T05:22:54.058Z,96456.53
2024-02-17T05:23:55.941Z,96462.47
2024-02-17T05:24:58.823Z,96464.00
2024-02-17T05:26:00.720Z,96462.47
2024-02-17T05:27:04.125Z,96466.75
2024-02-17T05:28:06.841Z,96463.22
2024-02-17T05:29:09.739Z,96460.94
2024-02-17T05:30:15.293Z,96472.69
2024-02-17T05:31:27.247Z,96469.19
2024-02-17T05:32:30.182Z,96473.88
2024-02-17T05:33:32.228Z,96471.56
2024-02-17T05:34:36.900Z,96470.00
2024-02-17T05:35:38.917Z,96474.34
2024-02-17T05:36:41.840Z,96470.00
2024-02-17T05:37:43.768Z,96470.78
2024-02-17T05:38:46.946Z,96473.53
2024-02-17T05:39:48.991Z,96474.34
2024-02-17T05:40:51.903Z,96477.09
2024-02-17T05:41:53.781Z,96473.53
2024-02-17T05:42:56.634Z,96478.28
2024-02-17T05:43:58.514Z,96486.53
2024-02-17T05:45:02.264Z,96481.03
2024-02-17T05:46:04.519Z,96483.41
2024-02-17T05:47:07.699Z,96479.47
2024-02-17T05:48:09.959Z,96480.66
2024-02-17T05:49:12.918Z,96481.88
2024-02-17T05:50:16.357Z,96484.28
2024-02-17T05:51:19.433Z,96487.03
2024-02-17T05:52:21.398Z,96484.28
2024-02-17T05:53:24.194Z,96486.25
2024-02-17T05:54:26.009Z,96491.00
2024-02-17T05:55:27.903Z,96494.50
2024-02-17T05:56:30.710Z,96490.19
2024-02-17T05:57:32.765Z,96498.91
2024-02-17T05:58:37.168Z,96501.66
2024-02-17T05:59:39.055Z,96502.47
2024-02-17T06:00:41.960Z,96502.84
2024-02-17T06:01:44.140Z,96505.59
2024-02-17T06:02:47.097Z,96500.84
2024-02-17T06:03:49.065Z,96500.84
2024-02-17T06:04:52.061Z,96500.84
2024-02-17T06:05:55.456Z,96509.09
2024-02-17T06:06:58.474Z,96505.59
2024-02-17T06:08:00.567Z,96507.91
2024-02-17T06:09:04.515Z,96514.19
2024-02-17T06:10:07.908Z,96513.41
2024-02-17T06:11:10.793Z,96514.19
2024-02-17T06:12:12.683Z,96521.25
2024-02-17T06:13:15.573Z,96514.97
2024-02-17T06:14:17.525Z,96520.47
2024-02-17T06:15:20.394Z,96518.16
2024-02-17T06:16:22.345Z,96527.16
2024-02-17T06:17:27.837Z,96523.66
2024-02-17T06:18:48.573Z,96521.66
2024-02-17T06:20:09.447Z,96523.66
2024-02-17T06:21:21.330Z,96534.66
2024-02-17T06:22:26.191Z,96531.91
2024-02-17T06:23:28.299Z,96535.84
2024-02-17T06:24:31.216Z,96538.59
2024-02-17T06:25:33.729Z,96540.16
2024-02-17T06:26:37.234Z,96540.94
2024-02-17T06:27:39.304Z,96540.16
2024-02-17T06:28:42.650Z,96543.69
2024-02-17T06:29:45.429Z,96546.44
2024-02-17T06:30:48.394Z,96544.84
2024-02-17T06:31:50.366Z,96549.94
2024-02-17T06:32:52.245Z,96549.59
2024-02-17T06:33:55.345Z,96551.16
2024-02-17T06:34:57.305Z,96555.44
2024-02-17T06:36:00.203Z,96552.69
2024-02-17T06:37:05.117Z,96559.41
2024-02-17T06:38:08.043Z,96551.94
2024-02-17T06:39:10.147Z,96553.91
2024-02-17T06:40:12.673Z,96557.44
2024-02-17T06:41:16.678Z,96558.19
2024-02-17T06:42:19.035Z,96555.44
2024-02-17T06:43:22.151Z,96567.66
2024-02-17T06:44:26.667Z,96562.94
2024-02-17T06:45:30.699Z,96566.44
2024-02-17T06:46:32.706Z,96566.44
2024-02-17T06:47:35.644Z,96562.16
2024-02-17T06:48:38.016Z,96570.41
2024-02-17T06:49:39.994Z,96566.09
2024-02-17T06:50:42.939Z,96574.34
2024-02-17T06:51:44.879Z,96571.59
2024-02-17T06:52:51.020Z,96574.34
2024-02-17T06:53:53.666Z,96573.59
2024-02-17T06:54:56.492Z,96577.88
2024-02-17T06:55:58.417Z,96577.88
2024-02-17T06:57:01.429Z,96586.56
2024-02-17T06:58:03.285Z,96581.06
2024-02-17T06:59:06.146Z,96581.84
2024-02-17T07:00:09.106Z,96579.06
2024-02-17T07:01:12.042Z,96592.06
2024-02-17T07:02:16.537Z,96583.03
2024-02-17T07:03:19.619Z,96591.28
2024-02-17T07:04:22.292Z,96586.56
2024-02-17T07:05:25.200Z,96589.31
2024-02-17T07:06:27.291Z,96596.00
2024-02-17T07:07:30.247Z,96596.00
2024-02-17T07:08:33.625Z,96596.00
2024-02-17T07:09:36.760Z,96596.00
2024-02-17T07:10:38.989Z,96607.00
2024-02-17T07:11:41.897Z,96602.72
2024-02-17T07:12:43.975Z,96600.72
2024-02-17T07:13:46.888Z,96602.72
2024-02-17T07:14:49.464Z,96604.69
2024-02-17T07:15:52.475Z,96612.16
2024-02-17T07:16:57.442Z,96610.97
2024-02-17T07:18:02.523Z,96606.66
2024-02-17T07:19:04.759Z,96611.38
2024-02-17T07:20:09.537Z,96610.97
2024-02-17T07:21:12.227Z,96617.22
2024-02-17T07:22:15.212Z,96610.97
2024-02-17T07:23:18.538Z,96618.44
2024-02-17T07:24:22.839Z,96620.41
2024-02-17T07:25:25.243Z,96620.41
2024-02-17T07:26:28.136Z,96631.41
2024-02-17T07:27:30.143Z,96629.09
2024-02-17T07:28:38.175Z,96631.47
2024-02-17T07:29:40.249Z,96641.72
2024-02-17T07:30:43.764Z,96646.84
2024-02-17T07:31:45.781Z,96641.34
2024-02-17T07:32:47.818Z,96646.50
2024-02-17T07:33:53.493Z,96646.56
2024-02-17T07:34:55.558Z,96645.00
2024-02-17T07:35:58.620Z,96647.00
2024-02-17T07:37:00.542Z,96654.88
2024-02-17T07:38:02.626Z,96653.31
2024-02-17T07:39:06.669Z,96654.53
2024-02-17T07:40:11.460Z,96663.13
2024-02-17T07:41:14.296Z,96657.63
2024-02-17T07:42:16.256Z,96659.94
2024-02-17T07:43:21.308Z,96661.91
2024-02-17T07:44:24.896Z,96667.78
2024-02-17T07:45:27.524Z,96667.41
2024-02-17T07:46:30.420Z,96664.31
2024-02-17T07:47:33.453Z,96675.69
2024-02-17T07:48:36.555Z,96670.94
2024-02-17T07:49:38.583Z,96676.44
2024-02-17T07:50:40.554Z,96675.69
2024-02-17T07:51:45.027Z,96681.53
2024-02-17T07:52:46.941Z,96687.03
2024-02-17T07:53:49.875Z,96687.81
2024-02-17T07:54:52.046Z,96680.75
2024-02-17T07:55:56.275Z,96692.16
2024-02-17T07:56:58.631Z,96682.75
2024-02-17T07:58:01.663Z,96683.91
2024-02-17T07:59:04.372Z,96689.06
2024-02-17T08:00:09.884Z,96696.13
2024-02-17T08:01:14.500Z,96697.66
2024-02-17T08:02:17.508Z,96696.91
2024-02-17T08:03:19.659Z,96698.88
2024-02-17T08:04:22.855Z,96697.66
2024-02-17T08:05:24.907Z,96700.84
2024-02-17T08:06:27.885Z,96705.56
2024-02-17T08:07:29.848Z,96716.56
2024-02-17T08:08:33.679Z,96705.56
2024-02-17T08:09:35.672Z,96711.88
2024-02-17T08:10:38.647Z,96708.31
2024-02-17T08:11:42.438Z,96711.97
2024-02-17T08:12:45.419Z,96708.78
2024-02-17T08:13:47.474Z,96709.56
2024-02-17T08:14:53.657Z,96711.53
2024-02-17T08:15:55.800Z,96712.31
2024-02-17T08:16:58.789Z,96716.69
2024-02-17T08:18:00.865Z,96729.25
2024-02-17T08:19:04.336Z,96718.66
2024-02-17T08:20:07.263Z,96724.53
2024-02-17T08:21:10.303Z,96726.06
2024-02-17T08:22:12.480Z,96732.38
2024-02-17T08:23:17.810Z,96727.63
2024-02-17T08:24:19.908Z,96734.69
2024-02-17T08:25:23.023Z,96734.69
2024-02-17T08:26:24.880Z,96738.19
2024-02-17T08:27:29.330Z,96738.19
2024-02-17T08:28:31.290Z,96742.16
2024-02-17T08:29:35.120Z,96739.41
2024-02-17T08:30:38.153Z,96737.88
2024-02-17T08:31:40.108Z,96740.63
2024-02-17T08:32:43.397Z,96749.63
2024-02-17T08:33:45.498Z,96746.53
2024-02-17T08:34:50.155Z,96752.03
2024-02-17T08:35:52.453Z,96748.88
2024-02-17T08:36:55.388Z,96757.13
2024-02-17T08:37:57.287Z,96750.41
2024-02-17T08:39:00.756Z,96755.13
2024-02-17T08:40:02.915Z,96762.63
2024-02-17T08:41:06.229Z,96772.41
2024-02-17T08:42:08.264Z,96761.41
2024-02-17T08:43:13.290Z,96768.44
2024-02-17T08:44:15.170Z,96770.03
2024-02-17T08:45:18.043Z,96769.25
2024-02-17T08:46:19.960Z,96770.03
2024-02-17T08:47:23.587Z,96773.94
2024-02-17T08:48:28.021Z,96772.41
2024-02-17T08:49:33.538Z,96766.91
2024-02-17T08:50:35.496Z,96778.50
2024-02-17T08:51:41.724Z,96774.56
2024-02-17T08:52:43.748Z,96771.81
2024-02-17T08:53:46.691Z,96779.66
2024-02-17T08:54:48.859Z,96774.50
2024-02-17T08:55:51.873Z,96780.41
2024-02-17T08:56:54.941Z,96777.66
2024-02-17T08:57:57.804Z,96783.94
2024-02-17T08:59:01.028Z,96786.69
2024-02-17T09:00:06.499Z,96787.13
2024-02-17T09:01:08.713Z,96788.31
2024-02-17T09:02:18.031Z,96791.06
2024-02-17T09:03:20.132Z,96778.50
2024-02-17T09:04:23.211Z,96790.28
2024-02-17T09:05:25.439Z,96791.84
2024-02-17T09:06:27.634Z,96795.00
2024-02-17T09:07:30.648Z,96796.66
2024-02-17T09:08:32.577Z,96797.81
2024-02-17T09:09:35.527Z,96801.34
2024-02-17T09:10:37.382Z,96806.06
2024-02-17T09:11:40.760Z,96799.41
2024-02-17T09:12:42.898Z,96803.56
2024-02-17T09:13:48.657Z,96799.63
2024-02-17T09:14:51.929Z,96810.63
2024-02-17T09:15:53.981Z,96807.09
2024-02-17T09:16:56.826Z,96812.59
2024-02-17T09:18:00.398Z,96816.16
2024-02-17T09:19:03.419Z,96811.50
2024-02-17T09:20:06.937Z,96811.56
2024-02-17T09:21:10.068Z,96814.00
2024-02-17T09:22:12.485Z,96812.81
2024-02-17T09:23:14.375Z,96818.75
2024-02-17T09:24:20.457Z,96814.84
2024-02-17T09:25:22.600Z,96818.78
2024-02-17T09:26:25.666Z,96820.34
2024-02-17T09:27:27.582Z,96831.34
2024-02-17T09:28:30.455Z,96820.41
2024-02-17T09:29:33.296Z,96828.25
2024-02-17T09:30:39.477Z,96824.69
2024-02-17T09:31:42.500Z,96827.44
2024-02-17T09:32:45.447Z,96825.50
2024-02-17T09:33:47.480Z,96821.16
2024-02-17T09:34:50.548Z,96833.75
2024-02-17T09:35:52.469Z,96831.44
2024-02-17T09:36:54.460Z,96830.25
2024-02-17T09:37:57.365Z,96833.38
2024-02-17T09:38:59.342Z,96840.84
2024-02-17T09:40:03.361Z,96836.91
2024-02-17T09:41:05.922Z,96833.78
2024-02-17T09:42:09.289Z,96839.66
2024-02-17T09:43:11.288Z,96843.16
2024-02-17T09:44:14.210Z,96845.16
2024-02-17T09:45:17.118Z,96846.34
2024-02-17T09:46:22.839Z,96844.78
2024-02-17T09:47:26.529Z,96851.06
2024-02-17T09:48:30.242Z,96847.53
2024-02-17T09:49:36.656Z,96855.38
2024-02-17T09:50:42.018Z,96858.13
2024-02-17T09:51:46.736Z,96852.25
2024-02-17T09:52:50.717Z,96852.63
2024-02-17T09:53:54.112Z,96856.66
2024-02-17T09:54:58.654Z,96858.22
2024-02-17T09:56:01.117Z,96860.13
2024-02-17T09:57:05.604Z,96860.91
2024-02-17T09:58:07.567Z,96861.34
2024-02-17T09:59:10.476Z,96859.72
2024-02-17T10:00:15.300Z,96865.59
2024-02-17T10:01:17.621Z,96867.53
2024-02-17T10:02:22.056Z,96866.78
2024-02-17T10:03:25.998Z,96868.75
2024-02-17T10:04:29.109Z,96878.53
2024-02-17T10:05:32.645Z,96871.44
2024-02-17T10:06:36.482Z,96877.75
2024-02-17T10:07:56.660Z,96875.00
2024-02-17T10:09:00.504Z,96883.22
2024-02-17T10:10:02.879Z,96880.84
2024-02-17T10:11:07.999Z,96876.53
2024-02-17T10:12:11.604Z,96882.41
2024-02-17T10:13:18.682Z,96889.09
2024-02-17T10:14:23.998Z,96886.34
2024-02-17T10:15:28.439Z,96893.75
2024-02-17T10:16:31.901Z,96887.06
2024-02-17T10:17:36.130Z,96888.63
2024-02-17T10:18:40.668Z,96891.69
2024-02-17T10:19:43.793Z,96892.13
2024-02-17T10:20:46.550Z,96899.53
2024-02-17T10:21:50.041Z,96895.63
2024-02-17T10:22:54.443Z,96894.06
2024-02-17T10:23:57.766Z,96893.28
2024-02-17T10:25:00.652Z,96901.53
2024-02-17T10:26:03.891Z,96897.25
2024-02-17T10:27:06.920Z,96898.84
2024-02-17T10:28:09.918Z,96900.03
2024-02-17T10:29:16.748Z,96901.38
2024-02-17T10:30:21.740Z,96906.81
2024-02-17T10:31:24.416Z,96906.81
2024-02-17T10:32:27.311Z,96916.69
2024-02-17T10:33:30.736Z,96908.78
2024-02-17T10:34:34.623Z,96911.16
2024-02-17T10:35:38.052Z,96913.94
2024-02-17T10:36:42.846Z,96913.22
2024-02-17T10:37:49.703Z,96915.22
2024-02-17T10:38:55.341Z,96912.56
2024-02-17T10:39:59.470Z,96914.63
2024-02-17T10:41:02.449Z,96915.44
2024-02-17T10:42:04.967Z,96920.59
2024-02-17T10:43:07.924Z,96916.69
2024-02-17T10:44:11.528Z,96918.31
2024-02-17T10:45:15.191Z,96918.72
2024-02-17T10:46:19.559Z,96913.66
2024-02-17T10:47:27.784Z,96913.66
2024-02-17T10:48:31.432Z,96917.56
2024-02-17T10:49:42.833Z,96915.63
2024-02-17T10:50:46.793Z,96917.28
2024-02-17T10:51:56.331Z,96918.72
2024-02-17T10:53:02.633Z,96923.03
2024-02-17T10:54:08.443Z,96930.94
2024-02-17T10:55:12.775Z,96926.66
2024-02-17T10:56:18.782Z,96924.03
2024-02-17T10:57:23.352Z,96935.84
2024-02-17T10:58:26.536Z,96925.28
2024-02-17T10:59:31.080Z,96924.53
2024-02-17T11:00:35.890Z,96926.16
2024-02-17T11:01:38.526Z,96926.56
2024-02-17T11:02:44.359Z,96936.38
2024-02-17T11:03:48.449Z,96928.94
2024-02-17T11:04:52.183Z,96925.59
2024-02-17T11:05:58.261Z,96928.91
2024-02-17T11:07:02.003Z,96929.63
2024-02-17T11:08:05.425Z,96926.03
2024-02-17T11:09:09.897Z,96923.00
2024-02-17T11:10:14.124Z,96927.88
2024-02-17T11:11:27.300Z,96930.44
2024-02-17T11:12:33.996Z,96942.34
2024-02-17T11:13:37.202Z,96939.44
2024-02-17T11:14:40.297Z,96933.22
2024-02-17T11:16:02.391Z,96932.16
2024-02-17T11:17:04.628Z,96936.19
2024-02-17T11:18:08.148Z,96932.72
2024-02-17T11:19:11.895Z,96935.19
2024-02-17T11:20:16.002Z,96934.44
2024-02-17T11:21:26.169Z,96943.94
2024-02-17T11:22:28.125Z,96934.94
2024-02-17T11:23:35.368Z,96938.50
2024-02-17T11:24:38.942Z,96939.72
2024-02-17T11:25:43.254Z,96937.78
2024-02-17T11:26:46.201Z,96945.25
2024-02-17T11:27:49.092Z,96940.94
2024-02-17T11:28:51.067Z,96947.66
2024-02-17T11:29:52.957Z,96948.06
2024-02-17T11:30:57.533Z,96949.66
2024-02-17T11:32:01.135Z,96948.09
2024-02-17T11:33:07.063Z,96949.66
2024-02-17T11:34:09.538Z,96942.91
2024-02-17T11:35:15.552Z,96944.09
2024-02-17T11:36:19.055Z,96938.66
2024-02-17T11:37:24.137Z,96945.72
2024-02-17T11:38:27.392Z,96948.91
2024-02-17T11:39:33.148Z,96948.09
2024-02-17T11:40:38.010Z,96943.38
2024-02-17T11:41:40.888Z,96946.56
2024-02-17T11:42:43.667Z,96952.06
2024-02-17T11:43:47.155Z,96953.22
2024-02-17T11:44:49.364Z,96948.09
2024-02-17T11:45:53.083Z,96945.34
2024-02-17T11:46:55.102Z,96948.91
2024-02-17T11:47:58.117Z,96948.47
2024-02-17T11:49:08.762Z,96951.22
2024-02-17T11:50:15.421Z,96939.03
2024-02-17T11:51:25.703Z,96951.22
2024-02-17T11:52:34.122Z,96952.34
2024-02-17T11:53:36.051Z,96945.66
2024-02-17T11:54:46.464Z,96947.59
2024-02-17T11:55:51.730Z,96946.41
2024-02-17T11:57:04.391Z,96946.44
2024-02-17T11:58:09.373Z,96953.94
2024-02-17T11:59:13.429Z,96953.16
2024-02-17T12:00:17.662Z,96950.34
2024-02-17T12:01:21.044Z,96942.44
2024-02-17T12:02:24.553Z,96947.53
2024-02-17T12:03:34.103Z,96943.22
2024-02-17T12:04:39.368Z,96949.50
2024-02-17T12:05:43.758Z,96945.56
2024-02-17T12:06:48.986Z,96940.47
2024-02-17T12:07:52.074Z,96951.06
2024-02-17T12:08:53.910Z,96951.06
2024-02-17T12:09:57.085Z,96957.44
2024-02-17T12:10:59.983Z,96950.41
2024-02-17T12:12:03.578Z,96946.41
2024-02-17T12:13:06.877Z,96949.47
2024-02-17T12:14:10.131Z,96949.47
2024-02-17T12:15:15.398Z,96956.50
2024-02-17T12:16:17.372Z,96944.72
2024-02-17T12:17:20.413Z,96954.97
2024-02-17T12:18:51.101Z,96950.22
2024-02-17T12:19:54.267Z,96943.94
2024-02-17T12:20:58.278Z,96956.16
2024-02-17T12:22:01.484Z,96957.34
2024-02-17T12:23:04.200Z,96961.66
2024-02-17T12:24:07.937Z,96957.34